Lady Mary — WCY4834 — position and weather

sailwx.info

Track history (hours):
 
Tides and Currents Weather Stations Pressure Air Temp Water Temp Dewpoint Dewpoint Depression Visibility Wind Speed Wind Dir Waves Ship Positions

Lady Mary

Owner: BLACKMAN, JOHN H, SEATTLE, WA. More information available from US FCC via Universal Licensing System and Coast Guard Vessel Documentation Center.

Last reported at 2018-Jan-20 20:49 UTC. Time now 2018-Jan-20 21:18 UTC.
Position N 47°36' W 122°20'.

Length 26 m.

Type: Passenger vessel. MMSI: 367013060.

Date/timePositionNaut miles runAvg speedWind from/ knotsBaromVisibWave heightAir tempDewpointWater temp
2018-Jan-20 20:49N 47°36' W 122°20'0 0.0
2018-Jan-20 20:29N 47°36' W 122°20'0 0.0
2018-Jan-20 19:59N 47°36' W 122°20'0 0.0
2018-Jan-20 19:14N 47°36' W 122°20'0 0.0
2018-Jan-20 18:57N 47°36' W 122°20'0 0.0
2018-Jan-20 18:21N 47°36' W 122°20'0 0.0
2018-Jan-20 17:51N 47°36' W 122°20'0 0.0
2018-Jan-20 17:25N 47°36' W 122°20'0 0.0
2018-Jan-20 16:16N 47°36' W 122°20'0 0.0
2018-Jan-20 15:59N 47°36' W 122°20'0 0.0
2018-Jan-20 15:23N 47°36' W 122°20'0 0.0
2018-Jan-20 14:56N 47°36' W 122°20'0 0.0
2018-Jan-20 14:12N 47°36' W 122°20'0 0.0
2018-Jan-20 13:54N 47°36' W 122°20'0 0.0
2018-Jan-20 13:21N 47°36' W 122°20'0 0.0
2018-Jan-20 12:49N 47°36' W 122°20'0 0.0
2018-Jan-20 12:28N 47°36' W 122°20'0 0.0
2018-Jan-20 11:55N 47°36' W 122°20'0 0.0
2018-Jan-20 11:23N 47°36' W 122°20'0 0.0
2018-Jan-20 10:59N 47°36' W 122°20'0 0.0
2018-Jan-20 10:29N 47°36' W 122°20'0 0.0
2018-Jan-20 09:57N 47°36' W 122°20'0 0.1
2018-Jan-20 09:28N 47°36' W 122°21'4 8.3
2018-Jan-20 09:00N 47°38' W 122°25'2 3.7
2018-Jan-20 08:30N 47°40' W 122°24'0 1.0
2018-Jan-20 08:01N 47°40' W 122°23'3 5.7
2018-Jan-20 07:30N 47°39' W 122°19'4 7.5
2018-Jan-20 07:01N 47°40' W 122°14'1 1.8
2018-Jan-20 06:30N 47°40' W 122°13'0 0.0
2018-Jan-20 06:00N 47°40' W 122°13'3 5.6
2018-Jan-20 05:31N 47°39' W 122°16'3 5.4
2018-Jan-20 05:01N 47°38' W 122°20'2 3.6
2018-Jan-20 04:31N 47°39' W 122°22'2 3.6
2018-Jan-20 04:01N 47°39' W 122°20'3 6.3
2018-Jan-20 03:30N 47°39' W 122°15'2 4.0
2018-Jan-20 03:01N 47°40' W 122°13'0 0.0
2018-Jan-20 02:31N 47°40' W 122°13'0 0.0
2018-Jan-20 02:00N 47°40' W 122°13'0 0.0
2018-Jan-20 01:31N 47°40' W 122°13'0 0.0
2018-Jan-20 01:01N 47°40' W 122°13'0 0.0
2018-Jan-20 00:30N 47°40' W 122°13'0 0.1
2018-Jan-19 23:59N 47°40' W 122°13'4 7.9
2018-Jan-19 23:28N 47°39' W 122°18'2 5.2
2018-Jan-19 23:01N 47°39' W 122°22'2 3.2
2018-Jan-19 22:30N 47°40' W 122°24'2 3.7
2018-Jan-19 22:01N 47°39' W 122°26'4 8.6
2018-Jan-19 21:30N 47°36' W 122°20'0 0.0
2018-Jan-19 18:44N 47°36' W 122°20'0 0.0
2018-Jan-19 18:29N 47°36' W 122°20'0 0.0
2018-Jan-19 14:53N 47°36' W 122°20'0 0.0
2018-Jan-19 14:29N 47°36' W 122°20'0 0.0
2018-Jan-19 13:44N 47°36' W 122°20'0 0.0
2018-Jan-19 13:09N 47°36' W 122°20'0 0.0
2018-Jan-19 13:00N 47°36' W 122°20'0 0.0
2018-Jan-19 12:24N 47°36' W 122°20'0 0.0
2018-Jan-19 11:55N 47°36' W 122°20'0 0.0
2018-Jan-19 10:58N 47°36' W 122°20'0 0.0
2018-Jan-19 10:29N 47°36' W 122°20'0 0.0
2018-Jan-19 09:59N 47°36' W 122°20'0 0.0
2018-Jan-19 09:29N 47°36' W 122°20'0 0.0
2018-Jan-19 09:00N 47°36' W 122°20'0 0.0
2018-Jan-19 08:30N 47°36' W 122°20'0 0.0
2018-Jan-19 08:00N 47°36' W 122°20'0 0.0
2018-Jan-19 07:16N 47°36' W 122°20'0 0.0
2018-Jan-19 06:25N 47°36' W 122°20'0 0.0
2018-Jan-19 05:56N 47°36' W 122°20'0 0.0
2018-Jan-19 04:15N 47°36' W 122°20'0 0.0
2018-Jan-19 03:45N 47°36' W 122°20'0 0.0
2018-Jan-19 03:18N 47°36' W 122°20'0 0.0
2018-Jan-19 02:43N 47°36' W 122°20'0 0.0
2018-Jan-19 00:26N 47°36' W 122°20'0 0.0
2018-Jan-18 23:15N 47°36' W 122°20'0 0.0
2018-Jan-18 22:51N 47°36' W 122°20'0 0.0
2018-Jan-18 22:07N 47°36' W 122°20'0 0.0
2018-Jan-18 21:55N 47°36' W 122°20'0 0.0
2018-Jan-18 21:22N 47°36' W 122°20'0 0.0
2018-Jan-18 20:38N 47°36' W 122°20'0 0.0
2018-Jan-18 20:20N 47°36' W 122°20'0 0.0
2018-Jan-18 19:44N 47°36' W 122°20'0 0.0
2018-Jan-18 13:42N 47°36' W 122°20'0 0.0
2018-Jan-18 13:28N 47°36' W 122°20'0 0.0
2018-Jan-18 12:49N 47°36' W 122°20'0 0.0
2018-Jan-18 12:19N 47°36' W 122°20'0 0.0
2018-Jan-18 11:47N 47°36' W 122°20'0 0.0
2018-Jan-18 11:11N 47°36' W 122°20'0 0.0
2018-Jan-18 10:53N 47°36' W 122°20'0 0.0
2018-Jan-18 10:24N 47°36' W 122°20'0 0.0
2018-Jan-18 09:54N 47°36' W 122°20'0 0.0
2018-Jan-18 09:18N 47°36' W 122°20'0 0.0
2018-Jan-18 08:22N 47°36' W 122°20'0 0.0
2018-Jan-18 07:17N 47°36' W 122°20'0 0.0
2018-Jan-18 06:59N 47°36' W 122°20'0 0.0
2018-Jan-18 06:29N 47°36' W 122°20'0 0.0
2018-Jan-18 05:54N 47°36' W 122°20'0 0.0
2018-Jan-18 05:24N 47°36' W 122°20'0 0.0
2018-Jan-18 04:57N 47°36' W 122°20'0 0.0
2018-Jan-18 04:30N 47°36' W 122°20'0 0.0
2018-Jan-18 02:35N 47°36' W 122°20'0 0.0
2018-Jan-18 02:29N 47°36' W 122°20'0 0.0
2018-Jan-18 01:32N 47°36' W 122°20'0 0.1
2018-Jan-18 01:26N 47°36' W 122°20'0 0.0
2018-Jan-18 01:00N 47°36' W 122°20'0 0.0
2018-Jan-17 23:46N 47°36' W 122°20'  
2018-Jan-12 09:27N 47°36' W 122°20'0 0.0
2018-Jan-11 23:45N 47°36' W 122°20'0 0.0
2018-Jan-11 23:28N 47°36' W 122°20'0 0.0
2018-Jan-11 22:52N 47°36' W 122°20'0 0.0
2018-Jan-11 21:38N 47°36' W 122°20'0 0.0
2018-Jan-11 21:29N 47°36' W 122°20'0 0.0
2018-Jan-11 20:53N 47°36' W 122°20'0 0.0
2018-Jan-11 20:30N 47°36' W 122°20'0 0.0
2018-Jan-11 20:00N 47°36' W 122°20'0 0.0
2018-Jan-11 19:30N 47°36' W 122°20'0 0.0
2018-Jan-11 18:58N 47°36' W 122°20'0 0.0
2018-Jan-11 18:19N 47°36' W 122°20'0 0.0
2018-Jan-11 17:40N 47°36' W 122°20'0 0.0
2018-Jan-11 17:26N 47°36' W 122°20'0 0.0
2018-Jan-11 16:35N 47°36' W 122°20'0 0.0
2018-Jan-11 16:23N 47°36' W 122°20'0 0.0
2018-Jan-11 16:00N 47°36' W 122°20'0 0.0
2018-Jan-11 15:24N 47°36' W 122°20'0 0.0
2018-Jan-11 14:57N 47°36' W 122°20'0 0.0
2018-Jan-11 14:28N 47°36' W 122°20'0 0.0
2018-Jan-11 13:49N 47°36' W 122°20'0 0.0
2018-Jan-11 13:25N 47°36' W 122°20'0 0.0
2018-Jan-11 12:53N 47°36' W 122°20'0 0.0
2018-Jan-11 12:29N 47°36' W 122°20'0 0.0
2018-Jan-11 11:59N 47°36' W 122°20'0 0.0
2018-Jan-11 11:30N 47°36' W 122°20'0 0.0
2018-Jan-11 11:00N 47°36' W 122°20'0 0.0
2018-Jan-11 10:27N 47°36' W 122°20'0 0.0
2018-Jan-11 09:58N 47°36' W 122°20'0 0.0
2018-Jan-11 09:19N 47°36' W 122°20'0 0.0
2018-Jan-11 08:55N 47°36' W 122°20'0 0.0
2018-Jan-11 08:20N 47°36' W 122°20'0 0.0
2018-Jan-11 07:59N 47°36' W 122°20'0 0.0
2018-Jan-11 07:29N 47°36' W 122°20'0 0.0
2018-Jan-11 06:57N 47°36' W 122°20'0 0.0
2018-Jan-11 06:30N 47°36' W 122°20'0 0.0
2018-Jan-11 05:51N 47°36' W 122°20'0 0.0
2018-Jan-11 05:19N 47°36' W 122°20'0 0.0
2018-Jan-11 04:46N 47°36' W 122°20'0 0.0
2018-Jan-11 04:25N 47°36' W 122°20'0 0.0
2018-Jan-11 03:47N 47°36' W 122°20'0 0.0
2018-Jan-11 03:26N 47°36' W 122°20'0 0.0
2018-Jan-11 02:59N 47°36' W 122°20'0 0.0
2018-Jan-11 02:24N 47°36' W 122°20'0 0.0
2018-Jan-11 00:46N 47°36' W 122°20'0 0.0
2018-Jan-11 00:28N 47°36' W 122°20'0 0.0
2018-Jan-10 23:43N 47°36' W 122°20'0 0.0
2018-Jan-10 23:23N 47°36' W 122°20'0 0.0
2018-Jan-10 22:20N 47°36' W 122°20'0 0.0
2018-Jan-10 21:48N 47°36' W 122°20'0 0.0
2018-Jan-10 21:30N 47°36' W 122°20'0 0.0
2018-Jan-10 20:51N 47°36' W 122°20'  
Track history (hours):
 
Tides and Currents Weather Stations Pressure Air Temp Water Temp Dewpoint Dewpoint Depression Visibility Wind Speed Wind Dir Waves Ship Positions

Lady Mary

Owner: BLACKMAN, JOHN H, SEATTLE, WA. More information available from US FCC via Universal Licensing System and Coast Guard Vessel Documentation Center.

Last reported at 2018-Jan-20 20:49 UTC. Time now 2018-Jan-20 21:18 UTC.
Position N 47°36' W 122°20'.

Length 26 m.

Type: Passenger vessel. MMSI: 367013060.

Date/timePositionNaut miles runAvg speedWind from/ knotsBaromVisibWave heightAir tempDewpointWater temp
2018-Jan-20 20:49N 47°36' W 122°20'0 0.0
2018-Jan-20 20:29N 47°36' W 122°20'0 0.0
2018-Jan-20 19:59N 47°36' W 122°20'0 0.0
2018-Jan-20 19:14N 47°36' W 122°20'0 0.0
2018-Jan-20 18:57N 47°36' W 122°20'0 0.0
2018-Jan-20 18:21N 47°36' W 122°20'0 0.0
2018-Jan-20 17:51N 47°36' W 122°20'0 0.0
2018-Jan-20 17:25N 47°36' W 122°20'0 0.0
2018-Jan-20 16:16N 47°36' W 122°20'0 0.0
2018-Jan-20 15:59N 47°36' W 122°20'0 0.0
2018-Jan-20 15:23N 47°36' W 122°20'0 0.0
2018-Jan-20 14:56N 47°36' W 122°20'0 0.0
2018-Jan-20 14:12N 47°36' W 122°20'0 0.0
2018-Jan-20 13:54N 47°36' W 122°20'0 0.0
2018-Jan-20 13:21N 47°36' W 122°20'0 0.0
2018-Jan-20 12:49N 47°36' W 122°20'0 0.0
2018-Jan-20 12:28N 47°36' W 122°20'0 0.0
2018-Jan-20 11:55N 47°36' W 122°20'0 0.0
2018-Jan-20 11:23N 47°36' W 122°20'0 0.0
2018-Jan-20 10:59N 47°36' W 122°20'0 0.0
2018-Jan-20 10:29N 47°36' W 122°20'0 0.0
2018-Jan-20 09:57N 47°36' W 122°20'0 0.1
2018-Jan-20 09:28N 47°36' W 122°21'4 8.3
2018-Jan-20 09:00N 47°38' W 122°25'2 3.7
2018-Jan-20 08:30N 47°40' W 122°24'0 1.0
2018-Jan-20 08:01N 47°40' W 122°23'3 5.7
2018-Jan-20 07:30N 47°39' W 122°19'4 7.5
2018-Jan-20 07:01N 47°40' W 122°14'1 1.8
2018-Jan-20 06:30N 47°40' W 122°13'0 0.0
2018-Jan-20 06:00N 47°40' W 122°13'3 5.6
2018-Jan-20 05:31N 47°39' W 122°16'3 5.4
2018-Jan-20 05:01N 47°38' W 122°20'2 3.6
2018-Jan-20 04:31N 47°39' W 122°22'2 3.6
2018-Jan-20 04:01N 47°39' W 122°20'3 6.3
2018-Jan-20 03:30N 47°39' W 122°15'2 4.0
2018-Jan-20 03:01N 47°40' W 122°13'0 0.0
2018-Jan-20 02:31N 47°40' W 122°13'0 0.0
2018-Jan-20 02:00N 47°40' W 122°13'0 0.0
2018-Jan-20 01:31N 47°40' W 122°13'0 0.0
2018-Jan-20 01:01N 47°40' W 122°13'0 0.0
2018-Jan-20 00:30N 47°40' W 122°13'0 0.1
2018-Jan-19 23:59N 47°40' W 122°13'4 7.9
2018-Jan-19 23:28N 47°39' W 122°18'2 5.2
2018-Jan-19 23:01N 47°39' W 122°22'2 3.2
2018-Jan-19 22:30N 47°40' W 122°24'2 3.7
2018-Jan-19 22:01N 47°39' W 122°26'4 8.6
2018-Jan-19 21:30N 47°36' W 122°20'0 0.0
2018-Jan-19 18:44N 47°36' W 122°20'0 0.0
2018-Jan-19 18:29N 47°36' W 122°20'0 0.0
2018-Jan-19 14:53N 47°36' W 122°20'0 0.0
2018-Jan-19 14:29N 47°36' W 122°20'0 0.0
2018-Jan-19 13:44N 47°36' W 122°20'0 0.0
2018-Jan-19 13:09N 47°36' W 122°20'0 0.0
2018-Jan-19 13:00N 47°36' W 122°20'0 0.0
2018-Jan-19 12:24N 47°36' W 122°20'0 0.0
2018-Jan-19 11:55N 47°36' W 122°20'0 0.0
2018-Jan-19 10:58N 47°36' W 122°20'0 0.0
2018-Jan-19 10:29N 47°36' W 122°20'0 0.0
2018-Jan-19 09:59N 47°36' W 122°20'0 0.0
2018-Jan-19 09:29N 47°36' W 122°20'0 0.0
2018-Jan-19 09:00N 47°36' W 122°20'0 0.0
2018-Jan-19 08:30N 47°36' W 122°20'0 0.0
2018-Jan-19 08:00N 47°36' W 122°20'0 0.0
2018-Jan-19 07:16N 47°36' W 122°20'0 0.0
2018-Jan-19 06:25N 47°36' W 122°20'0 0.0
2018-Jan-19 05:56N 47°36' W 122°20'0 0.0
2018-Jan-19 04:15N 47°36' W 122°20'0 0.0
2018-Jan-19 03:45N 47°36' W 122°20'0 0.0
2018-Jan-19 03:18N 47°36' W 122°20'0 0.0
2018-Jan-19 02:43N 47°36' W 122°20'0 0.0
2018-Jan-19 00:26N 47°36' W 122°20'0 0.0
2018-Jan-18 23:15N 47°36' W 122°20'0 0.0
2018-Jan-18 22:51N 47°36' W 122°20'0 0.0
2018-Jan-18 22:07N 47°36' W 122°20'0 0.0
2018-Jan-18 21:55N 47°36' W 122°20'0 0.0
2018-Jan-18 21:22N 47°36' W 122°20'0 0.0
2018-Jan-18 20:38N 47°36' W 122°20'0 0.0
2018-Jan-18 20:20N 47°36' W 122°20'0 0.0
2018-Jan-18 19:44N 47°36' W 122°20'0 0.0
2018-Jan-18 13:42N 47°36' W 122°20'0 0.0
2018-Jan-18 13:28N 47°36' W 122°20'0 0.0
2018-Jan-18 12:49N 47°36' W 122°20'0 0.0
2018-Jan-18 12:19N 47°36' W 122°20'0 0.0
2018-Jan-18 11:47N 47°36' W 122°20'0 0.0
2018-Jan-18 11:11N 47°36' W 122°20'0 0.0
2018-Jan-18 10:53N 47°36' W 122°20'0 0.0
2018-Jan-18 10:24N 47°36' W 122°20'0 0.0
2018-Jan-18 09:54N 47°36' W 122°20'0 0.0
2018-Jan-18 09:18N 47°36' W 122°20'0 0.0
2018-Jan-18 08:22N 47°36' W 122°20'0 0.0
2018-Jan-18 07:17N 47°36' W 122°20'0 0.0
2018-Jan-18 06:59N 47°36' W 122°20'0 0.0
2018-Jan-18 06:29N 47°36' W 122°20'0 0.0
2018-Jan-18 05:54N 47°36' W 122°20'0 0.0
2018-Jan-18 05:24N 47°36' W 122°20'0 0.0
2018-Jan-18 04:57N 47°36' W 122°20'0 0.0
2018-Jan-18 04:30N 47°36' W 122°20'0 0.0
2018-Jan-18 02:35N 47°36' W 122°20'0 0.0
2018-Jan-18 02:29N 47°36' W 122°20'0 0.0
2018-Jan-18 01:32N 47°36' W 122°20'0 0.1
2018-Jan-18 01:26N 47°36' W 122°20'0 0.0
2018-Jan-18 01:00N 47°36' W 122°20'0 0.0
2018-Jan-17 23:46N 47°36' W 122°20'  
2018-Jan-12 09:27N 47°36' W 122°20'0 0.0
2018-Jan-11 23:45N 47°36' W 122°20'0 0.0
2018-Jan-11 23:28N 47°36' W 122°20'0 0.0
2018-Jan-11 22:52N 47°36' W 122°20'0 0.0
2018-Jan-11 21:38N 47°36' W 122°20'0 0.0
2018-Jan-11 21:29N 47°36' W 122°20'0 0.0
2018-Jan-11 20:53N 47°36' W 122°20'0 0.0
2018-Jan-11 20:30N 47°36' W 122°20'0 0.0
2018-Jan-11 20:00N 47°36' W 122°20'0 0.0
2018-Jan-11 19:30N 47°36' W 122°20'0 0.0
2018-Jan-11 18:58N 47°36' W 122°20'0 0.0
2018-Jan-11 18:19N 47°36' W 122°20'0 0.0
2018-Jan-11 17:40N 47°36' W 122°20'0 0.0
2018-Jan-11 17:26N 47°36' W 122°20'0 0.0
2018-Jan-11 16:35N 47°36' W 122°20'0 0.0
2018-Jan-11 16:23N 47°36' W 122°20'0 0.0
2018-Jan-11 16:00N 47°36' W 122°20'0 0.0
2018-Jan-11 15:24N 47°36' W 122°20'0 0.0
2018-Jan-11 14:57N 47°36' W 122°20'0 0.0
2018-Jan-11 14:28N 47°36' W 122°20'0 0.0
2018-Jan-11 13:49N 47°36' W 122°20'0 0.0
2018-Jan-11 13:25N 47°36' W 122°20'0 0.0
2018-Jan-11 12:53N 47°36' W 122°20'0 0.0
2018-Jan-11 12:29N 47°36' W 122°20'0 0.0
2018-Jan-11 11:59N 47°36' W 122°20'0 0.0
2018-Jan-11 11:30N 47°36' W 122°20'0 0.0
2018-Jan-11 11:00N 47°36' W 122°20'0 0.0
2018-Jan-11 10:27N 47°36' W 122°20'0 0.0
2018-Jan-11 09:58N 47°36' W 122°20'0 0.0
2018-Jan-11 09:19N 47°36' W 122°20'0 0.0
2018-Jan-11 08:55N 47°36' W 122°20'0 0.0
2018-Jan-11 08:20N 47°36' W 122°20'0 0.0
2018-Jan-11 07:59N 47°36' W 122°20'0 0.0
2018-Jan-11 07:29N 47°36' W 122°20'0 0.0
2018-Jan-11 06:57N 47°36' W 122°20'0 0.0
2018-Jan-11 06:30N 47°36' W 122°20'0 0.0
2018-Jan-11 05:51N 47°36' W 122°20'0 0.0
2018-Jan-11 05:19N 47°36' W 122°20'0 0.0
2018-Jan-11 04:46N 47°36' W 122°20'0 0.0
2018-Jan-11 04:25N 47°36' W 122°20'0 0.0
2018-Jan-11 03:47N 47°36' W 122°20'0 0.0
2018-Jan-11 03:26N 47°36' W 122°20'0 0.0
2018-Jan-11 02:59N 47°36' W 122°20'0 0.0
2018-Jan-11 02:24N 47°36' W 122°20'0 0.0
2018-Jan-11 00:46N 47°36' W 122°20'0 0.0
2018-Jan-11 00:28N 47°36' W 122°20'0 0.0
2018-Jan-10 23:43N 47°36' W 122°20'0 0.0
2018-Jan-10 23:23N 47°36' W 122°20'0 0.0
2018-Jan-10 22:20N 47°36' W 122°20'0 0.0
2018-Jan-10 21:48N 47°36' W 122°20'0 0.0
2018-Jan-10 21:30N 47°36' W 122°20'0 0.0
2018-Jan-10 20:51N 47°36' W 122°20'  

Dump ship's entire track history